Time;durP1;ratioP1;P1;durP2;ratioP2;P2;SDS_P1;SDS_P2;PMS_P1;PMS_P2;Temp;Humidity;BMP_temperature;BMP_pressure;BME280_temperature;BME280_humidity;BME280_pressure;Samples;Min_cycle;Max_cycle;Signal;HPM_P1;HPM_P2
2022/11/09 00:01:24;;;;;;;24.20;16.40;;;;;;;7.73;78.74;100436.45;100882;1289;94409;-61
2022/11/09 00:03:58;;;;;;;22.30;16.30;;;;;;;7.68;78.87;100435.96;100608;1291;138637;-61
2022/11/09 00:06:30;;;;;;;24.10;16.20;;;;;;;7.67;78.91;100443.23;100604;1283;110298;-61
2022/11/09 00:09:02;;;;;;;23.60;16.30;;;;;;;7.66;78.85;100436.01;100671;1283;97977;-61
2022/11/09 00:11:38;;;;;;;25.00;16.10;;;;;;;7.65;78.83;100436.55;100575;1289;139457;-60
2022/11/09 00:14:13;;;;;;;24.20;16.50;;;;;;;7.60;78.88;100434.69;100788;1286;95133;-60
2022/11/09 00:16:44;;;;;;;23.60;16.30;;;;;;;7.54;78.93;100434.05;100569;1291;139101;-60
2022/11/09 00:19:15;;;;;;;23.70;16.00;;;;;;;7.50;79.16;100434.45;100753;1291;107154;-60
2022/11/09 00:21:45;;;;;;;22.50;15.70;;;;;;;7.47;79.29;100433.09;100790;1291;99406;-60
2022/11/09 00:24:16;;;;;;;24.90;16.00;;;;;;;7.43;79.21;100432.60;100617;1284;138300;-60
2022/11/09 00:26:47;;;;;;;22.30;16.00;;;;;;;7.41;79.51;100430.15;100715;1287;94348;-61
2022/11/09 00:29:18;;;;;;;23.20;15.90;;;;;;;7.36;79.64;100426.88;100581;1287;138536;-60
2022/11/09 00:31:51;;;;;;;23.20;15.40;;;;;;;7.31;79.85;100420.92;100692;1290;107505;-61
2022/11/09 00:34:22;;;;;;;22.90;15.90;;;;;;;7.29;79.96;100421.28;100635;1290;139659;-60
2022/11/09 00:36:52;;;;;;;22.40;14.80;;;;;;;7.28;80.20;100420.78;100677;1284;109129;-60
2022/11/09 00:39:24;;;;;;;20.00;14.90;;;;;;;7.31;80.18;100423.91;100739;1291;95134;-60
2022/11/09 00:41:55;;;;;;;23.40;15.90;;;;;;;7.38;80.16;100424.17;100661;1291;138661;-61
2022/11/09 00:44:25;;;;;;;22.60;16.50;;;;;;;7.43;80.05;100425.19;100674;1290;107389;-60
2022/11/09 00:46:56;;;;;;;22.90;15.70;;;;;;;7.46;79.61;100424.25;100606;1287;138960;-60
2022/11/09 00:49:27;;;;;;;23.60;15.50;;;;;;;7.44;79.57;100424.11;100739;1291;110235;-60
2022/11/09 00:51:58;;;;;;;21.60;15.40;;;;;;;7.44;79.71;100424.64;100573;1282;139109;-61
2022/11/09 00:54:29;;;;;;;23.70;15.70;;;;;;;7.49;79.73;100424.92;100589;1291;94733;-59
2022/11/09 00:56:59;;;;;;;24.40;15.70;;;;;;;7.49;79.68;100427.40;100561;1290;107971;-59
2022/11/09 00:59:30;;;;;;;22.90;15.90;;;;;;;7.46;79.83;100421.23;100653;1291;138668;-59
2022/11/09 01:02:01;;;;;;;21.30;14.20;;;;;;;7.44;79.72;100417.04;100664;1291;110348;-61
2022/11/09 01:04:32;;;;;;;21.00;13.80;;;;;;;7.44;79.94;100419.34;100614;1291;139219;-60
2022/11/09 01:07:02;;;;;;;19.40;13.60;;;;;;;7.46;79.94;100421.60;100720;1284;94841;-60
2022/11/09 01:09:34;;;;;;;21.70;14.60;;;;;;;7.48;80.16;100411.34;100758;1283;106257;-60
2022/11/09 01:12:05;;;;;;;23.20;15.20;;;;;;;7.49;80.30;100416.09;100676;1290;139659;-60
2022/11/09 01:14:36;;;;;;;22.50;14.40;;;;;;;7.49;80.24;100414.33;100608;1291;106545;-59
2022/11/09 01:17:07;;;;;;;21.00;14.20;;;;;;;7.50;80.12;100416.27;100517;1291;138858;-60
2022/11/09 01:19:38;;;;;;;21.50;14.80;;;;;;;7.55;80.12;100417.45;100668;1291;94321;-60
2022/11/09 01:22:09;;;;;;;20.40;13.80;;;;;;;7.55;80.03;100416.02;100554;1291;139125;-61
2022/11/09 01:24:39;;;;;;;21.80;15.20;;;;;;;7.54;79.85;100417.98;100693;1291;97736;-60
2022/11/09 01:27:10;;;;;;;24.40;15.20;;;;;;;7.56;79.78;100419.00;100685;1290;108356;-61
2022/11/09 01:29:41;;;;;;;24.10;15.20;;;;;;;7.56;79.63;100414.59;100577;1291;138256;-59
2022/11/09 01:32:12;;;;;;;22.40;14.90;;;;;;;7.53;79.75;100411.97;100720;1298;95097;-61
2022/11/09 01:34:42;;;;;;;22.50;15.30;;;;;;;7.50;79.83;100410.78;100537;1290;138724;-60
2022/11/09 01:37:13;;;;;;;21.50;15.10;;;;;;;7.51;79.83;100409.54;100601;1283;97816;-60
2022/11/09 01:39:44;;;;;;;22.20;14.70;;;;;;;7.52;79.80;100411.98;100681;1289;108519;-60
2022/11/09 01:42:21;;;;;;;21.80;15.20;;;;;;;7.52;79.70;100406.68;100494;1291;138828;-60
2022/11/09 01:45:26;;;;;;;23.70;15.60;;;;;;;7.52;79.63;100405.27;100629;1291;95130;-60
2022/11/09 01:48:02;;;;;;;22.10;15.40;;;;;;;7.51;79.58;100407.05;100635;1287;138754;-60
2022/11/09 01:50:45;;;;;;;22.30;14.20;;;;;;;7.49;79.65;100403.73;100655;1291;98504;-59
2022/11/09 01:53:19;;;;;;;23.30;15.90;;;;;;;7.46;79.40;100403.06;100553;1289;138565;-60
2022/11/09 01:55:56;;;;;;;20.80;15.50;;;;;;;7.45;79.57;100401.66;100619;1283;94431;-61
2022/11/09 01:58:30;;;;;;;22.80;15.00;;;;;;;7.45;79.41;100398.66;100518;1291;138852;-59
2022/11/09 02:01:02;;;;;;;23.50;15.20;;;;;;;7.43;79.49;100393.91;100771;1290;107920;-59
2022/11/09 02:03:38;;;;;;;23.20;14.80;;;;;;;7.41;79.33;100392.52;100668;1290;98875;-60
2022/11/09 02:06:13;;;;;;;24.00;15.40;;;;;;;7.39;79.42;100389.01;100569;1291;138807;-60
2022/11/09 02:08:46;;;;;;;22.60;15.20;;;;;;;7.38;79.20;100392.22;100692;1291;94440;-60
2022/11/09 02:11:19;;;;;;;22.90;14.80;;;;;;;7.36;79.39;100390.13;100558;1291;138378;-59
2022/11/09 02:13:55;;;;;;;25.50;15.50;;;;;;;7.35;79.58;100389.59;100774;1287;107826;-61
2022/11/09 02:16:26;;;;;;;20.80;14.10;;;;;;;7.31;79.49;100387.54;100630;1298;139426;-60
2022/11/09 02:19:00;;;;;;;21.00;14.90;;;;;;;7.24;79.56;100384.27;100487;1283;108263;-60
2022/11/09 02:21:34;;;;;;;22.20;15.20;;;;;;;7.18;79.76;100391.77;100593;1291;94706;-60
2022/11/09 02:24:06;;;;;;;22.70;15.00;;;;;;;7.16;79.97;100391.61;100592;1290;139277;-61
2022/11/09 02:26:44;;;;;;;22.50;14.90;;;;;;;7.18;79.69;100387.71;100660;1291;105606;-59
2022/11/09 02:29:20;;;;;;;23.50;15.60;;;;;;;7.15;79.62;100383.31;100583;1289;138933;-59
2022/11/09 02:31:55;;;;;;;23.80;15.50;;;;;;;7.11;80.10;100382.33;100613;1290;107777;-60
2022/11/09 02:34:26;;;;;;;23.00;15.00;;;;;;;7.10;79.84;100380.74;100527;1291;139740;-61
2022/11/09 02:36:57;;;;;;;22.40;15.70;;;;;;;7.08;79.94;100376.70;100689;1287;95686;-61
2022/11/09 02:39:29;;;;;;;23.60;14.40;;;;;;;7.07;80.01;100379.17;100670;1291;108014;-61
2022/11/09 02:42:05;;;;;;;20.70;15.20;;;;;;;7.07;79.87;100374.24;100584;1286;138677;-60
2022/11/09 02:44:45;;;;;;;23.20;15.10;;;;;;;7.04;79.95;100372.86;100736;1313;106083;-59
2022/11/09 02:47:16;;;;;;;23.40;15.60;;;;;;;7.00;80.17;100371.84;100456;1291;139209;-59
2022/11/09 02:49:48;;;;;;;24.30;15.30;;;;;;;6.97;80.17;100374.36;100633;1291;94309;-61
2022/11/09 02:52:20;;;;;;;24.60;15.40;;;;;;;6.97;80.26;100372.60;100547;1290;139349;-59
2022/11/09 02:54:50;;;;;;;24.70;15.10;;;;;;;6.97;80.27;100371.53;100721;1313;97525;-60
2022/11/09 02:57:21;;;;;;;25.50;16.40;;;;;;;6.98;80.17;100372.06;100715;1289;107116;-60
2022/11/09 02:59:53;;;;;;;24.00;15.80;;;;;;;6.98;80.17;100371.17;100516;1291;138718;-61
2022/11/09 03:02:24;;;;;;;23.00;15.50;;;;;;;7.00;80.27;100377.16;100616;1296;94332;-61
2022/11/09 03:04:55;;;;;;;24.10;15.10;;;;;;;6.99;80.03;100378.39;100658;1290;139197;-68
2022/11/09 03:07:26;;;;;;;23.10;15.10;;;;;;;6.98;79.87;100375.77;100774;1289;98271;-67
2022/11/09 03:09:57;;;;;;;23.70;15.70;;;;;;;6.99;80.12;100376.81;100624;1283;138717;-68
2022/11/09 03:12:31;;;;;;;25.00;16.20;;;;;;;6.97;80.07;100374.35;100720;1289;95923;-68
2022/11/09 03:15:10;;;;;;;24.10;15.70;;;;;;;6.97;80.05;100373.64;100815;1284;94343;-68
2022/11/09 03:17:45;;;;;;;26.80;16.50;;;;;;;6.98;80.00;100378.23;100709;1291;138862;-66
2022/11/09 03:20:16;;;;;;;24.10;16.20;;;;;;;7.00;80.09;100381.58;100801;1287;99348;-67
2022/11/09 03:22:47;;;;;;;24.20;16.10;;;;;;;7.02;80.09;100384.90;100567;1290;138469;-67
2022/11/09 03:25:18;;;;;;;24.40;15.80;;;;;;;7.02;80.04;100383.31;100726;1291;94847;-68
2022/11/09 03:27:49;;;;;;;23.00;14.80;;;;;;;7.02;80.03;100382.77;100841;1291;94371;-66
2022/11/09 03:30:20;;;;;;;23.70;15.40;;;;;;;7.01;79.89;100384.55;100590;1287;108133;-67
2022/11/09 03:32:57;;;;;;;25.10;16.20;;;;;;;6.99;79.84;100378.04;100742;1292;98727;-67
2022/11/09 03:35:28;;;;;;;23.60;15.60;;;;;;;6.99;80.15;100378.94;100578;1290;138650;-69
2022/11/09 03:37:59;;;;;;;26.60;16.30;;;;;;;7.02;80.07;100379.42;100790;1287;94835;-68
2022/11/09 03:40:30;;;;;;;25.10;15.50;;;;;;;7.03;79.90;100379.76;100539;1290;139101;-68
2022/11/09 03:43:00;;;;;;;24.70;16.10;;;;;;;7.05;80.07;100377.64;100611;1291;106775;-68
2022/11/09 03:45:31;;;;;;;25.90;16.40;;;;;;;7.06;80.14;100379.73;100666;1291;98970;-67
2022/11/09 03:48:02;;;;;;;23.60;15.30;;;;;;;7.08;80.19;100378.82;100612;1294;138575;-67
2022/11/09 03:50:39;;;;;;;25.10;15.70;;;;;;;7.09;79.84;100379.88;100697;1307;94575;-70
2022/11/09 03:53:11;;;;;;;24.70;15.30;;;;;;;7.11;80.00;100378.61;100722;1294;138553;-68
2022/11/09 03:55:42;;;;;;;27.20;16.20;;;;;;;7.11;79.67;100372.27;100696;1313;107107;-69
2022/11/09 03:58:13;;;;;;;25.30;15.70;;;;;;;7.07;79.97;100369.48;100682;1284;139057;-69
2022/11/09 04:00:44;;;;;;;25.90;16.00;;;;;;;7.06;80.00;100367.91;100689;1287;107102;-66
2022/11/09 04:03:15;;;;;;;25.00;16.00;;;;;;;7.03;80.28;100363.16;100620;1287;94685;-67
2022/11/09 04:05:46;;;;;;;25.40;16.40;;;;;;;7.02;80.06;100358.41;100555;1291;138898;-68
2022/11/09 04:08:17;;;;;;;25.70;16.10;;;;;;;6.98;80.37;100355.28;100720;1290;107357;-67
2022/11/09 04:10:47;;;;;;;26.60;16.90;;;;;;;6.97;80.42;100356.71;100620;1286;138947;-68
2022/11/09 04:13:18;;;;;;;24.50;16.30;;;;;;;6.99;80.53;100357.05;100756;1289;106551;-68
2022/11/09 04:15:49;;;;;;;26.60;16.40;;;;;;;6.99;80.39;100355.46;100686;1294;94826;-67
2022/11/09 04:18:20;;;;;;;27.30;16.60;;;;;;;7.02;80.51;100356.12;100779;1291;94862;-68
2022/11/09 04:20:51;;;;;;;27.50;16.80;;;;;;;7.03;80.25;100358.41;100753;1287;108113;-68
2022/11/09 04:23:22;;;;;;;27.30;16.30;;;;;;;7.02;80.34;100359.29;100591;1287;139508;-67
2022/11/09 04:25:53;;;;;;;25.20;16.30;;;;;;;7.05;80.22;100355.91;100714;1290;107929;-68
2022/11/09 04:28:24;;;;;;;27.20;17.20;;;;;;;7.04;80.11;100356.09;100659;1297;138939;-68
2022/11/09 04:30:55;;;;;;;24.30;16.50;;;;;;;7.02;80.19;100352.77;100784;1290;94825;-67
2022/11/09 04:33:25;;;;;;;25.30;16.70;;;;;;;7.00;80.13;100354.20;100630;1296;107999;-67
2022/11/09 04:36:00;;;;;;;27.80;17.60;;;;;;;6.99;80.22;100354.73;100645;1310;139625;-67
2022/11/09 04:38:31;;;;;;;26.10;17.70;;;;;;;7.07;80.71;100359.41;100712;1286;107300;-67
2022/11/09 04:41:07;;;;;;;28.30;17.40;;;;;;;7.11;80.08;100358.30;100646;1296;138143;-67
2022/11/09 04:43:38;;;;;;;27.30;17.10;;;;;;;7.08;79.75;100360.81;100687;1297;94971;-66
2022/11/09 04:46:09;;;;;;;26.40;16.00;;;;;;;7.05;79.86;100355.39;100743;1287;139086;-67
2022/11/09 04:48:40;;;;;;;26.20;17.20;;;;;;;7.02;79.73;100354.89;100680;1306;98380;-68
2022/11/09 04:51:11;;;;;;;27.10;18.00;;;;;;;7.00;80.05;100359.52;100806;1291;107705;-69
2022/11/09 04:53:42;;;;;;;25.60;16.40;;;;;;;6.98;80.03;100357.95;100624;1287;139161;-68
2022/11/09 04:56:13;;;;;;;28.30;17.10;;;;;;;6.94;80.13;100357.45;100681;1297;95704;-68
2022/11/09 04:58:43;;;;;;;23.40;15.40;;;;;;;6.91;80.17;100352.54;100488;1292;138633;-68
2022/11/09 05:01:15;;;;;;;27.10;17.70;;;;;;;6.89;80.26;100355.05;100679;1291;98615;-68
2022/11/09 05:03:46;;;;;;;27.70;17.60;;;;;;;6.85;80.43;100351.73;100870;1294;107229;-68
2022/11/09 05:06:32;;;;;;;24.50;15.90;;;;;;;6.84;80.57;100353.33;100515;1291;138533;-67
2022/11/09 05:09:05;;;;;;;25.40;16.80;;;;;;;6.85;80.62;100356.50;100677;1299;94276;-68
2022/11/09 05:11:37;;;;;;;25.90;17.10;;;;;;;6.86;80.47;100354.55;100630;1289;140308;-69
2022/11/09 05:14:08;;;;;;;27.90;18.30;;;;;;;6.84;80.60;100350.14;100845;1291;98014;-67
2022/11/09 05:16:38;;;;;;;28.70;17.80;;;;;;;6.82;80.53;100349.48;100561;1290;138731;-68
2022/11/09 05:19:09;;;;;;;25.90;16.50;;;;;;;6.83;80.89;100352.29;100655;1291;95353;-65
2022/11/09 05:21:40;;;;;;;25.20;17.30;;;;;;;6.87;80.67;100350.66;100845;1296;95231;-68
2022/11/09 05:24:11;;;;;;;27.70;17.10;;;;;;;6.85;80.60;100348.39;100590;1303;138125;-68
2022/11/09 05:26:43;;;;;;;27.70;17.50;;;;;;;6.81;80.59;100348.98;100704;1297;97720;-67
2022/11/09 05:29:14;;;;;;;27.30;16.50;;;;;;;6.78;80.77;100351.80;100578;1294;138743;-67
2022/11/09 05:31:46;;;;;;;27.50;17.30;;;;;;;6.78;80.68;100347.39;100729;1286;94303;-67
2022/11/09 05:34:22;;;;;;;28.50;17.30;;;;;;;6.78;80.75;100351.64;100931;1287;139123;-66
2022/11/09 05:36:52;;;;;;;27.70;17.70;;;;;;;6.75;80.55;100355.20;100734;1289;106820;-66
2022/11/09 05:39:23;;;;;;;26.60;16.90;;;;;;;6.75;80.87;100354.52;100646;1290;98508;-67
2022/11/09 05:41:54;;;;;;;25.50;16.70;;;;;;;6.75;80.68;100352.90;100614;1287;138939;-68
2022/11/09 05:44:24;;;;;;;27.70;17.80;;;;;;;6.74;80.72;100353.81;100682;1295;95117;-68
2022/11/09 05:46:55;;;;;;;30.00;18.30;;;;;;;6.73;80.85;100356.11;100598;1289;138198;-68
2022/11/09 05:49:26;;;;;;;27.70;17.70;;;;;;;6.73;80.81;100363.17;100631;1294;109904;-66
2022/11/09 05:51:57;;;;;;;27.90;17.10;;;;;;;6.74;80.93;100362.10;100635;1291;140264;-68
2022/11/09 05:54:27;;;;;;;28.60;18.20;;;;;;;6.74;80.65;100358.58;100937;1294;108071;-69
2022/11/09 05:57:00;;;;;;;29.80;18.20;;;;;;;6.73;80.78;100358.05;100847;1281;94864;-70
2022/11/09 05:59:31;;;;;;;28.70;17.70;;;;;;;6.72;80.76;100354.71;100793;1286;138531;-70
2022/11/09 06:02:02;;;;;;;27.70;17.60;;;;;;;6.71;80.80;100358.09;100874;1286;107767;-70
2022/11/09 06:04:33;;;;;;;27.70;18.40;;;;;;;6.70;80.85;100360.90;100772;1287;139663;-75
2022/11/09 06:07:03;;;;;;;30.30;19.30;;;;;;;6.74;81.20;100362.80;100907;1286;108695;-70
2022/11/09 06:09:34;;;;;;;28.60;17.90;;;;;;;6.74;80.88;100358.04;100929;1288;95320;-72
2022/11/09 06:12:06;;;;;;;29.20;18.10;;;;;;;6.74;80.82;100359.27;100722;1286;138536;-70
2022/11/09 06:14:37;;;;;;;29.60;18.40;;;;;;;6.74;80.79;100361.40;100964;1287;107216;-70
2022/11/09 06:17:08;;;;;;;27.60;17.40;;;;;;;6.77;80.95;100365.05;100799;1280;138627;-67
2022/11/09 06:19:38;;;;;;;31.20;19.90;;;;;;;6.79;80.90;100361.87;100750;1286;108066;-69
2022/11/09 06:22:09;;;;;;;29.40;18.50;;;;;;;6.83;81.14;100355.81;100746;1288;139174;-70
2022/11/09 06:24:40;;;;;;;29.30;18.20;;;;;;;6.89;81.04;100360.69;100908;1286;94622;-68
2022/11/09 06:27:11;;;;;;;29.50;19.10;;;;;;;6.95;80.76;100362.58;100913;1281;108847;-64
2022/11/09 06:29:42;;;;;;;29.30;19.10;;;;;;;7.03;80.78;100370.06;100763;1286;138471;-71
2022/11/09 06:32:12;;;;;;;30.60;19.40;;;;;;;7.16;80.99;100374.48;100934;1286;108130;-69
2022/11/09 06:34:47;;;;;;;32.20;18.90;;;;;;;7.23;80.22;100377.41;100844;1307;139254;-70
2022/11/09 06:37:17;;;;;;;29.10;18.00;;;;;;;7.31;80.22;100376.23;100941;1294;94729;-68
2022/11/09 06:39:50;;;;;;;29.50;19.60;;;;;;;7.32;79.70;100374.98;100904;1288;107267;-67
2022/11/09 06:42:21;;;;;;;31.60;19.30;;;;;;;7.33;79.88;100374.27;100872;1308;138258;-68
2022/11/09 06:44:52;;;;;;;31.00;18.90;;;;;;;7.35;79.74;100379.71;100971;1290;108542;-69
2022/11/09 06:47:22;;;;;;;29.50;18.40;;;;;;;7.39;79.93;100375.78;100809;1282;139489;-69
2022/11/09 06:49:53;;;;;;;30.40;18.20;;;;;;;7.42;79.82;100370.63;100986;1298;94713;-69
2022/11/09 06:52:24;;;;;;;30.70;18.30;;;;;;;7.40;80.07;100366.23;100863;1287;138992;-69
2022/11/09 06:54:55;;;;;;;30.30;18.80;;;;;;;7.39;80.10;100359.88;100905;1302;98783;-69
2022/11/09 06:57:28;;;;;;;31.20;19.00;;;;;;;7.43;80.44;100358.76;100957;1288;110770;-70
2022/11/09 07:00:00;;;;;;;27.90;18.70;;;;;;;7.52;80.37;100357.22;100809;1282;138725;-69
2022/11/09 07:02:31;;;;;;;32.00;19.00;;;;;;;7.57;80.36;100355.75;100969;1294;94437;-69
2022/11/09 07:05:02;;;;;;;31.70;19.90;;;;;;;7.62;80.36;100352.84;100816;1295;139686;-68
2022/11/09 07:07:33;;;;;;;30.40;18.30;;;;;;;7.65;80.53;100349.95;100981;1309;98540;-69
2022/11/09 07:10:04;;;;;;;30.10;19.00;;;;;;;7.68;80.55;100349.73;100885;1286;139604;-69
2022/11/09 07:12:35;;;;;;;30.50;18.80;;;;;;;7.73;80.56;100349.48;100978;1287;96419;-70
2022/11/09 07:15:07;;;;;;;33.50;20.60;;;;;;;7.81;80.84;100354.30;100987;1289;94330;-70
2022/11/09 07:17:39;;;;;;;31.80;18.80;;;;;;;7.94;80.51;100356.60;100923;1286;138415;-70
2022/11/09 07:20:13;;;;;;;30.50;19.40;;;;;;;8.00;80.03;100355.08;100932;1303;98579;-68
2022/11/09 07:22:44;;;;;;;30.50;19.90;;;;;;;8.05;80.08;100351.10;100851;1280;138905;-69
2022/11/09 07:25:15;;;;;;;33.50;19.90;;;;;;;8.12;80.16;100349.02;100944;1288;94838;-68
2022/11/09 07:27:46;;;;;;;30.30;19.60;;;;;;;8.22;80.03;100351.54;100942;1288;96692;-68
2022/11/09 07:30:17;;;;;;;29.20;18.40;;;;;;;8.29;80.05;100352.28;100722;1280;138722;-68
2022/11/09 07:32:48;;;;;;;31.10;18.80;;;;;;;8.35;79.83;100350.58;100889;1285;97878;-70
2022/11/09 07:35:38;;;;;;;32.30;19.80;;;;;;;8.44;79.78;100349.73;100827;1288;138564;-70
2022/11/09 07:38:10;;;;;;;31.70;20.60;;;;;;;8.51;79.48;100355.09;100908;1280;95054;-69
2022/11/09 07:40:40;;;;;;;32.70;19.50;;;;;;;8.59;79.45;100357.96;100849;1288;139040;-70
2022/11/09 07:43:12;;;;;;;29.90;19.00;;;;;;;8.67;79.18;100356.92;100952;1287;107538;-68
2022/11/09 07:45:44;;;;;;;30.10;19.00;;;;;;;8.75;79.07;100358.36;100986;1286;97758;-68
2022/11/09 07:48:15;;;;;;;37.30;20.50;;;;;;;8.81;79.07;100355.05;100811;1288;137975;-68
2022/11/09 07:50:45;;;;;;;30.20;19.70;;;;;;;8.85;79.13;100350.91;100908;1287;94393;-70
2022/11/09 07:53:17;;;;;;;30.80;18.50;;;;;;;8.92;78.77;100347.61;100546;1286;138888;-69
2022/11/09 07:55:56;;;;;;;30.10;20.00;;;;;;;8.96;78.77;100350.69;101036;1280;107580;-69
2022/11/09 07:58:27;;;;;;;31.80;20.30;;;;;;;9.01;78.43;100356.06;100834;1284;138396;-69
2022/11/09 08:00:59;;;;;;;31.30;19.50;;;;;;;9.05;78.36;100355.64;100921;1286;108081;-69
2022/11/09 08:03:30;;;;;;;32.40;19.50;;;;;;;9.08;78.27;100351.85;100920;1284;94763;-68
2022/11/09 08:06:01;;;;;;;30.90;19.00;;;;;;;9.14;78.27;100353.67;100879;1287;94813;-69
2022/11/09 08:08:32;;;;;;;29.60;19.60;;;;;;;9.27;78.24;100350.92;100707;1281;140263;-67
2022/11/09 08:11:03;;;;;;;33.20;20.30;;;;;;;9.36;77.92;100352.15;100962;1281;99313;-70
2022/11/09 08:13:34;;;;;;;31.10;19.30;;;;;;;9.41;77.68;100349.55;100792;1294;139115;-69
2022/11/09 08:16:06;;;;;;;29.90;19.20;;;;;;;9.45;77.42;100348.77;100807;1294;94386;-68
2022/11/09 08:18:36;;;;;;;30.20;20.10;;;;;;;9.52;77.63;100344.16;100963;1310;94407;-68
2022/11/09 08:21:07;;;;;;;33.10;21.00;;;;;;;9.62;77.48;100345.01;100706;1286;138370;-69
2022/11/09 08:23:38;;;;;;;30.60;19.90;;;;;;;9.64;77.12;100343.71;100856;1286;98653;-69
2022/11/09 08:26:10;;;;;;;30.70;19.80;;;;;;;9.67;77.13;100342.58;100721;1280;139299;-68
2022/11/09 08:28:41;;;;;;;33.30;19.70;;;;;;;9.72;77.11;100342.81;100871;1287;95166;-69
2022/11/09 08:31:11;;;;;;;30.20;18.40;;;;;;;9.79;76.87;100341.23;100870;1288;95240;-68
2022/11/09 08:33:43;;;;;;;33.10;19.60;;;;;;;9.84;76.89;100337.05;100844;1281;107599;-68
2022/11/09 08:36:16;;;;;;;30.90;19.60;;;;;;;9.90;76.61;100335.48;100806;1286;98614;-70
2022/11/09 08:38:47;;;;;;;28.40;17.80;;;;;;;10.04;76.62;100336.89;100915;1293;139467;-69
2022/11/09 08:41:17;;;;;;;30.40;19.10;;;;;;;10.17;76.21;100336.74;100895;1280;95524;-70
2022/11/09 08:43:48;;;;;;;31.50;20.20;;;;;;;10.29;76.12;100335.20;100808;1297;138862;-69
2022/11/09 08:46:19;;;;;;;31.60;19.20;;;;;;;10.45;75.80;100330.19;100950;1288;107235;-70
2022/11/09 08:48:49;;;;;;;30.40;19.20;;;;;;;10.63;75.53;100336.28;100960;1288;98925;-68
2022/11/09 08:51:21;;;;;;;28.90;19.40;;;;;;;10.79;75.20;100341.88;100735;1291;139014;-69
2022/11/09 08:53:52;;;;;;;29.60;19.60;;;;;;;10.85;74.16;100338.33;100885;1287;94276;-65
2022/11/09 08:56:23;;;;;;;28.90;18.80;;;;;;;10.93;74.25;100337.94;100817;1288;138363;-69
2022/11/09 08:58:53;;;;;;;29.40;18.80;;;;;;;11.07;74.17;100332.71;100888;1287;107895;-69
2022/11/09 09:01:25;;;;;;;28.10;18.10;;;;;;;11.19;73.59;100335.40;100757;1287;139407;-68
2022/11/09 09:03:56;;;;;;;27.80;18.10;;;;;;;11.38;73.32;100332.50;100912;1287;106523;-68
2022/11/09 09:06:26;;;;;;;29.30;19.20;;;;;;;11.57;72.39;100334.25;100853;1284;94425;-69
2022/11/09 09:09:01;;;;;;;29.90;19.10;;;;;;;11.64;71.87;100329.77;100790;1282;139382;-69
2022/11/09 09:11:31;;;;;;;27.80;17.90;;;;;;;12.43;70.79;100325.70;100585;1280;107561;-69
2022/11/09 09:14:02;;;;;;;28.00;17.80;;;;;;;13.47;67.65;100323.48;100715;1279;139800;-68
2022/11/09 09:16:35;;;;;;;26.30;18.00;;;;;;;14.05;66.14;100329.52;100885;1287;108312;-70
2022/11/09 09:19:06;;;;;;;29.70;18.60;;;;;;;14.64;64.66;100337.95;100935;1286;94752;-68
2022/11/09 09:21:37;;;;;;;27.30;18.30;;;;;;;14.91;63.25;100339.64;100868;1287;138356;-69
2022/11/09 09:24:09;;;;;;;28.00;18.10;;;;;;;14.49;62.54;100333.77;100869;1287;107665;-69
2022/11/09 09:26:40;;;;;;;28.80;18.60;;;;;;;14.05;63.43;100331.14;100843;1287;138538;-69
2022/11/09 09:29:12;;;;;;;26.50;17.70;;;;;;;13.66;63.91;100331.83;100884;1288;108010;-70
2022/11/09 09:31:42;;;;;;;28.00;17.70;;;;;;;13.38;65.30;100334.73;100827;1286;139442;-68
2022/11/09 09:34:13;;;;;;;27.60;18.40;;;;;;;13.25;65.94;100340.02;100902;1287;94412;-69
2022/11/09 09:36:44;;;;;;;27.90;18.00;;;;;;;13.20;66.60;100337.17;100892;1286;107765;-69
2022/11/09 09:39:17;;;;;;;29.30;18.70;;;;;;;13.13;66.68;100342.98;100857;1304;138737;-69
2022/11/09 09:41:53;;;;;;;26.90;17.70;;;;;;;13.03;66.71;100347.45;100883;1287;110390;-69
2022/11/09 09:44:31;;;;;;;33.10;18.70;;;;;;;12.89;66.82;100347.58;100814;1280;139702;-70
2022/11/09 09:47:15;;;;;;;28.10;18.30;;;;;;;12.82;67.13;100345.89;100979;1301;94832;-70
2022/11/09 09:49:52;;;;;;;30.20;18.40;;;;;;;12.69;67.19;100336.94;100799;1288;138490;-70
2022/11/09 09:52:32;;;;;;;28.40;17.60;;;;;;;12.52;67.50;100334.85;100975;1286;98346;-69
2022/11/09 09:55:09;;;;;;;28.40;18.10;;;;;;;12.39;68.09;100329.60;100864;1280;107988;-69
2022/11/09 09:57:41;;;;;;;39.20;20.00;;;;;;;12.35;68.10;100334.20;100710;1283;138505;-68
2022/11/09 10:00:22;;;;;;;33.30;18.20;;;;;;;12.34;68.49;100331.55;100836;1286;94313;-69
2022/11/09 10:02:54;;;;;;;32.00;18.90;;;;;;;12.41;68.69;100332.04;100793;1280;138530;-68
2022/11/09 10:05:33;;;;;;;34.20;18.20;;;;;;;12.44;68.28;100337.64;100970;1282;96725;-68
2022/11/09 10:08:11;;;;;;;35.20;19.30;;;;;;;12.44;68.53;100339.04;100742;1286;138579;-68
2022/11/09 10:10:49;;;;;;;31.10;19.00;;;;;;;12.43;68.34;100336.59;100900;1310;94267;-70
2022/11/09 10:13:47;;;;;;;29.10;18.10;;;;;;;12.41;68.40;100335.61;100668;1281;138881;-68
2022/11/09 10:16:28;;;;;;;28.10;17.90;;;;;;;12.35;68.39;100330.63;100935;1287;107278;-70
2022/11/09 10:19:38;;;;;;;28.90;18.90;;;;;;;12.38;68.84;100330.35;100990;1286;98659;-69
2022/11/09 10:22:19;;;;;;;33.40;17.90;;;;;;;12.45;68.48;100334.75;100904;1286;108631;-68
2022/11/09 10:24:58;;;;;;;33.00;18.70;;;;;;;12.46;68.79;100330.80;100924;1287;94342;-68
2022/11/09 10:27:52;;;;;;;30.10;18.10;;;;;;;12.52;68.72;100330.58;100950;1288;94558;-67
2022/11/09 10:30:25;;;;;;;28.70;17.60;;;;;;;12.50;68.55;100327.45;100989;1279;106436;-68
2022/11/09 10:32:57;;;;;;;26.40;17.20;;;;;;;12.48;68.71;100328.02;100795;1288;138560;-68
2022/11/09 10:35:35;;;;;;;36.60;19.90;;;;;;;12.49;68.88;100325.54;101004;1310;107285;-68
2022/11/09 10:38:10;;;;;;;25.70;16.40;;;;;;;12.48;68.62;100317.00;100782;1287;140551;-69
2022/11/09 10:40:52;;;;;;;27.90;17.60;;;;;;;12.49;68.80;100315.90;100973;1286;94296;-68
2022/11/09 10:43:41;;;;;;;28.20;18.90;;;;;;;12.57;68.46;100316.16;100831;1287;138493;-69
2022/11/09 10:46:31;;;;;;;31.40;19.90;;;;;;;12.68;68.52;100318.60;100837;1287;114810;-69
2022/11/09 10:49:22;;;;;;;28.00;18.50;;;;;;;12.73;67.91;100317.02;100936;1288;108902;-69
2022/11/09 10:52:38;;;;;;;27.70;17.90;;;;;;;12.76;68.44;100314.06;100890;1286;94829;-70
2022/11/09 10:55:36;;;;;;;29.00;18.80;;;;;;;12.82;68.05;100315.79;100850;1288;138937;-68
2022/11/09 10:58:30;;;;;;;30.50;18.70;;;;;;;12.84;68.04;100314.27;100910;1286;107430;-69
2022/11/09 11:01:22;;;;;;;33.00;20.40;;;;;;;12.87;68.03;100315.06;100901;1281;99922;-71
2022/11/09 11:04:22;;;;;;;27.30;17.80;;;;;;;12.91;67.54;100314.75;100882;1280;110899;-69
2022/11/09 11:07:19;;;;;;;26.30;18.20;;;;;;;12.94;67.29;100312.33;100912;1282;94822;-71
2022/11/09 11:10:28;;;;;;;26.80;17.40;;;;;;;12.97;67.27;100311.30;100917;1287;95455;-68
2022/11/09 11:13:28;;;;;;;27.10;17.20;;;;;;;13.02;67.15;100310.77;100953;1281;110680;-68
2022/11/09 11:16:29;;;;;;;27.00;17.40;;;;;;;13.06;66.86;100309.52;100935;1287;99554;-70
2022/11/09 11:19:34;;;;;;;28.30;18.00;;;;;;;13.09;66.73;100308.91;100815;1278;108958;-68
2022/11/09 11:22:26;;;;;;;28.70;17.20;;;;;;;13.10;66.43;100307.27;100875;1286;94856;-67
2022/11/09 11:25:23;;;;;;;26.90;17.10;;;;;;;13.09;66.94;100307.46;100841;1287;95169;-67
2022/11/09 11:28:21;;;;;;;26.10;16.90;;;;;;;13.17;67.20;100301.45;100825;1280;105570;-68
2022/11/09 11:31:14;;;;;;;28.70;19.10;;;;;;;13.25;67.05;100301.69;100836;1280;99718;-67
2022/11/09 11:34:08;;;;;;;30.40;19.50;;;;;;;13.26;66.38;100303.27;100898;1304;107256;-68